sensor_id;sensor_type;location;lat;lon;timestamp;P1;durP1;ratioP1;P2;durP2;ratioP2
2720;SDS011;1368;49.484;11.112;2022-11-15T00:00:23;12.47;;;9.67;;
2720;SDS011;1368;49.484;11.112;2022-11-15T00:02:49;12.93;;;10.23;;
2720;SDS011;1368;49.484;11.112;2022-11-15T00:05:15;13.93;;;9.30;;
2720;SDS011;1368;49.484;11.112;2022-11-15T00:07:40;14.10;;;9.10;;
2720;SDS011;1368;49.484;11.112;2022-11-15T00:10:06;15.60;;;10.57;;
2720;SDS011;1368;49.484;11.112;2022-11-15T00:12:32;14.27;;;9.90;;
2720;SDS011;1368;49.484;11.112;2022-11-15T00:14:57;15.30;;;9.83;;
2720;SDS011;1368;49.484;11.112;2022-11-15T00:17:23;15.80;;;11.50;;
2720;SDS011;1368;49.484;11.112;2022-11-15T00:19:48;17.90;;;11.03;;
2720;SDS011;1368;49.484;11.112;2022-11-15T00:22:14;15.73;;;10.73;;
2720;SDS011;1368;49.484;11.112;2022-11-15T00:24:39;20.97;;;13.20;;
2720;SDS011;1368;49.484;11.112;2022-11-15T00:27:05;15.33;;;11.73;;
2720;SDS011;1368;49.484;11.112;2022-11-15T00:29:31;13.83;;;11.47;;
2720;SDS011;1368;49.484;11.112;2022-11-15T00:31:56;23.10;;;12.70;;
2720;SDS011;1368;49.484;11.112;2022-11-15T00:34:22;16.20;;;10.73;;
2720;SDS011;1368;49.484;11.112;2022-11-15T00:36:47;16.00;;;9.93;;
2720;SDS011;1368;49.484;11.112;2022-11-15T00:39:13;16.83;;;11.50;;
2720;SDS011;1368;49.484;11.112;2022-11-15T00:41:38;18.03;;;11.07;;
2720;SDS011;1368;49.484;11.112;2022-11-15T00:44:04;15.10;;;10.20;;
2720;SDS011;1368;49.484;11.112;2022-11-15T00:46:29;13.97;;;11.40;;
2720;SDS011;1368;49.484;11.112;2022-11-15T00:48:56;14.60;;;10.60;;
2720;SDS011;1368;49.484;11.112;2022-11-15T00:51:21;14.10;;;10.30;;
2720;SDS011;1368;49.484;11.112;2022-11-15T00:53:47;16.73;;;11.40;;
2720;SDS011;1368;49.484;11.112;2022-11-15T00:56:12;13.40;;;9.63;;
2720;SDS011;1368;49.484;11.112;2022-11-15T00:58:38;14.60;;;10.50;;
2720;SDS011;1368;49.484;11.112;2022-11-15T01:01:11;15.90;;;10.10;;
2720;SDS011;1368;49.484;11.112;2022-11-15T01:03:39;16.43;;;11.10;;
2720;SDS011;1368;49.484;11.112;2022-11-15T01:06:06;14.40;;;10.90;;
2720;SDS011;1368;49.484;11.112;2022-11-15T01:08:33;13.77;;;9.53;;
2720;SDS011;1368;49.484;11.112;2022-11-15T01:11:05;15.27;;;9.93;;
2720;SDS011;1368;49.484;11.112;2022-11-15T01:13:33;14.30;;;10.37;;
2720;SDS011;1368;49.484;11.112;2022-11-15T01:16:05;14.87;;;10.70;;
2720;SDS011;1368;49.484;11.112;2022-11-15T01:18:32;14.60;;;11.13;;
2720;SDS011;1368;49.484;11.112;2022-11-15T01:20:57;15.13;;;10.80;;
2720;SDS011;1368;49.484;11.112;2022-11-15T01:23:23;15.93;;;10.10;;
2720;SDS011;1368;49.484;11.112;2022-11-15T01:25:48;15.40;;;9.90;;
2720;SDS011;1368;49.484;11.112;2022-11-15T01:28:14;17.57;;;11.50;;
2720;SDS011;1368;49.484;11.112;2022-11-15T01:30:39;18.63;;;11.80;;
2720;SDS011;1368;49.484;11.112;2022-11-15T01:33:05;16.07;;;11.93;;
2720;SDS011;1368;49.484;11.112;2022-11-15T01:35:31;20.40;;;12.50;;
2720;SDS011;1368;49.484;11.112;2022-11-15T01:37:57;16.73;;;10.83;;
2720;SDS011;1368;49.484;11.112;2022-11-15T01:40:22;18.57;;;12.60;;
2720;SDS011;1368;49.484;11.112;2022-11-15T01:42:48;17.37;;;12.07;;
2720;SDS011;1368;49.484;11.112;2022-11-15T01:45:14;16.33;;;12.43;;
2720;SDS011;1368;49.484;11.112;2022-11-15T01:47:42;16.37;;;11.97;;
2720;SDS011;1368;49.484;11.112;2022-11-15T01:50:16;16.27;;;12.63;;
2720;SDS011;1368;49.484;11.112;2022-11-15T01:52:45;18.50;;;13.10;;
2720;SDS011;1368;49.484;11.112;2022-11-15T01:55:15;20.20;;;14.17;;
2720;SDS011;1368;49.484;11.112;2022-11-15T01:57:47;19.87;;;12.37;;
2720;SDS011;1368;49.484;11.112;2022-11-15T02:00:16;18.90;;;12.47;;
2720;SDS011;1368;49.484;11.112;2022-11-15T02:02:42;21.73;;;12.83;;
2720;SDS011;1368;49.484;11.112;2022-11-15T02:05:08;17.53;;;12.30;;
2720;SDS011;1368;49.484;11.112;2022-11-15T02:07:34;16.90;;;12.97;;
2720;SDS011;1368;49.484;11.112;2022-11-15T02:10:11;21.70;;;13.57;;
2720;SDS011;1368;49.484;11.112;2022-11-15T02:12:41;20.43;;;13.10;;
2720;SDS011;1368;49.484;11.112;2022-11-15T02:15:07;23.10;;;13.40;;
2720;SDS011;1368;49.484;11.112;2022-11-15T02:20:11;18.53;;;12.57;;
2720;SDS011;1368;49.484;11.112;2022-11-15T02:33:26;17.37;;;13.30;;
2720;SDS011;1368;49.484;11.112;2022-11-15T02:41:33;17.27;;;13.30;;
2720;SDS011;1368;49.484;11.112;2022-11-15T02:44:06;16.80;;;12.40;;
2720;SDS011;1368;49.484;11.112;2022-11-15T02:46:53;17.27;;;12.93;;
2720;SDS011;1368;49.484;11.112;2022-11-15T02:49:50;18.70;;;13.37;;
2720;SDS011;1368;49.484;11.112;2022-11-15T02:52:19;29.33;;;15.50;;
2720;SDS011;1368;49.484;11.112;2022-11-15T02:54:54;21.60;;;14.87;;
2720;SDS011;1368;49.484;11.112;2022-11-15T02:57:25;27.20;;;14.17;;
2720;SDS011;1368;49.484;11.112;2022-11-15T03:00:19;21.30;;;13.70;;
2720;SDS011;1368;49.484;11.112;2022-11-15T03:08:41;22.23;;;12.70;;
2720;SDS011;1368;49.484;11.112;2022-11-15T03:11:09;17.60;;;13.37;;
2720;SDS011;1368;49.484;11.112;2022-11-15T03:14:00;23.57;;;15.17;;
2720;SDS011;1368;49.484;11.112;2022-11-15T03:19:47;20.60;;;14.40;;
2720;SDS011;1368;49.484;11.112;2022-11-15T03:22:16;23.60;;;14.20;;
2720;SDS011;1368;49.484;11.112;2022-11-15T03:24:45;15.87;;;12.80;;
2720;SDS011;1368;49.484;11.112;2022-11-15T03:27:15;22.07;;;15.13;;
2720;SDS011;1368;49.484;11.112;2022-11-15T03:29:47;19.50;;;13.73;;
2720;SDS011;1368;49.484;11.112;2022-11-15T03:32:25;19.90;;;12.97;;
2720;SDS011;1368;49.484;11.112;2022-11-15T03:34:55;19.50;;;13.17;;
2720;SDS011;1368;49.484;11.112;2022-11-15T03:37:37;18.00;;;12.80;;
2720;SDS011;1368;49.484;11.112;2022-11-15T03:40:11;19.87;;;13.33;;
2720;SDS011;1368;49.484;11.112;2022-11-15T03:42:46;19.30;;;14.23;;
2720;SDS011;1368;49.484;11.112;2022-11-15T03:45:27;22.13;;;13.33;;
2720;SDS011;1368;49.484;11.112;2022-11-15T03:48:07;17.57;;;11.70;;
2720;SDS011;1368;49.484;11.112;2022-11-15T03:50:43;25.47;;;13.20;;
2720;SDS011;1368;49.484;11.112;2022-11-15T03:53:10;20.47;;;13.60;;
2720;SDS011;1368;49.484;11.112;2022-11-15T03:55:37;20.80;;;13.27;;
2720;SDS011;1368;49.484;11.112;2022-11-15T03:58:02;15.60;;;12.40;;
2720;SDS011;1368;49.484;11.112;2022-11-15T04:00:28;23.73;;;13.73;;
2720;SDS011;1368;49.484;11.112;2022-11-15T04:02:54;17.13;;;12.03;;
2720;SDS011;1368;49.484;11.112;2022-11-15T04:05:19;20.00;;;12.70;;
2720;SDS011;1368;49.484;11.112;2022-11-15T04:07:45;15.43;;;11.40;;
2720;SDS011;1368;49.484;11.112;2022-11-15T04:10:11;17.63;;;12.13;;
2720;SDS011;1368;49.484;11.112;2022-11-15T04:12:38;14.50;;;11.80;;
2720;SDS011;1368;49.484;11.112;2022-11-15T04:15:08;20.10;;;11.90;;
2720;SDS011;1368;49.484;11.112;2022-11-15T04:17:36;16.97;;;10.93;;
2720;SDS011;1368;49.484;11.112;2022-11-15T04:20:04;14.87;;;10.77;;
2720;SDS011;1368;49.484;11.112;2022-11-15T04:22:53;16.60;;;11.10;;
2720;SDS011;1368;49.484;11.112;2022-11-15T04:25:41;21.13;;;11.87;;
2720;SDS011;1368;49.484;11.112;2022-11-15T04:28:08;19.57;;;11.37;;
2720;SDS011;1368;49.484;11.112;2022-11-15T04:30:35;14.70;;;10.00;;
2720;SDS011;1368;49.484;11.112;2022-11-15T04:33:00;16.30;;;10.50;;
2720;SDS011;1368;49.484;11.112;2022-11-15T04:35:26;15.70;;;10.90;;
2720;SDS011;1368;49.484;11.112;2022-11-15T04:37:52;18.00;;;11.10;;
2720;SDS011;1368;49.484;11.112;2022-11-15T04:40:17;15.43;;;10.53;;
2720;SDS011;1368;49.484;11.112;2022-11-15T04:42:43;15.13;;;10.80;;
2720;SDS011;1368;49.484;11.112;2022-11-15T04:45:09;16.60;;;11.53;;
2720;SDS011;1368;49.484;11.112;2022-11-15T04:47:34;18.20;;;11.40;;
2720;SDS011;1368;49.484;11.112;2022-11-15T04:50:00;14.87;;;10.10;;
2720;SDS011;1368;49.484;11.112;2022-11-15T04:52:26;16.03;;;11.73;;
2720;SDS011;1368;49.484;11.112;2022-11-15T04:54:52;16.13;;;10.37;;
2720;SDS011;1368;49.484;11.112;2022-11-15T04:57:17;15.97;;;10.60;;
2720;SDS011;1368;49.484;11.112;2022-11-15T04:59:43;17.37;;;12.03;;
2720;SDS011;1368;49.484;11.112;2022-11-15T05:02:08;12.03;;;9.77;;
2720;SDS011;1368;49.484;11.112;2022-11-15T05:04:34;15.73;;;10.97;;
2720;SDS011;1368;49.484;11.112;2022-11-15T05:06:59;17.27;;;11.43;;
2720;SDS011;1368;49.484;11.112;2022-11-15T05:09:25;16.60;;;9.83;;
2720;SDS011;1368;49.484;11.112;2022-11-15T05:11:51;14.70;;;11.00;;
2720;SDS011;1368;49.484;11.112;2022-11-15T05:14:16;14.13;;;10.20;;
2720;SDS011;1368;49.484;11.112;2022-11-15T05:16:42;19.13;;;11.10;;
2720;SDS011;1368;49.484;11.112;2022-11-15T05:19:08;11.63;;;9.37;;
2720;SDS011;1368;49.484;11.112;2022-11-15T05:21:34;14.33;;;9.90;;
2720;SDS011;1368;49.484;11.112;2022-11-15T05:24:00;13.20;;;9.40;;
2720;SDS011;1368;49.484;11.112;2022-11-15T05:26:25;12.50;;;9.47;;
2720;SDS011;1368;49.484;11.112;2022-11-15T05:28:55;12.27;;;9.80;;
2720;SDS011;1368;49.484;11.112;2022-11-15T05:31:22;15.00;;;9.63;;
2720;SDS011;1368;49.484;11.112;2022-11-15T05:33:49;15.93;;;9.77;;
2720;SDS011;1368;49.484;11.112;2022-11-15T05:36:28;12.53;;;9.57;;
2720;SDS011;1368;49.484;11.112;2022-11-15T05:39:07;14.57;;;9.37;;
2720;SDS011;1368;49.484;11.112;2022-11-15T05:41:35;11.60;;;8.40;;
2720;SDS011;1368;49.484;11.112;2022-11-15T05:44:06;14.00;;;10.07;;
2720;SDS011;1368;49.484;11.112;2022-11-15T05:46:34;13.60;;;9.27;;
2720;SDS011;1368;49.484;11.112;2022-11-15T05:49:01;12.30;;;9.33;;
2720;SDS011;1368;49.484;11.112;2022-11-15T05:51:29;14.13;;;8.90;;
2720;SDS011;1368;49.484;11.112;2022-11-15T05:53:55;13.30;;;8.60;;
2720;SDS011;1368;49.484;11.112;2022-11-15T05:56:23;14.37;;;9.60;;
2720;SDS011;1368;49.484;11.112;2022-11-15T05:58:49;12.57;;;8.53;;
2720;SDS011;1368;49.484;11.112;2022-11-15T06:01:16;13.87;;;8.77;;
2720;SDS011;1368;49.484;11.112;2022-11-15T06:03:41;12.70;;;8.87;;
2720;SDS011;1368;49.484;11.112;2022-11-15T06:06:07;15.30;;;8.43;;
2720;SDS011;1368;49.484;11.112;2022-11-15T06:08:33;15.80;;;9.30;;
2720;SDS011;1368;49.484;11.112;2022-11-15T06:11:02;14.90;;;8.63;;
2720;SDS011;1368;49.484;11.112;2022-11-15T06:13:32;13.40;;;9.70;;
2720;SDS011;1368;49.484;11.112;2022-11-15T06:15:58;12.23;;;8.70;;
2720;SDS011;1368;49.484;11.112;2022-11-15T06:18:24;12.87;;;9.63;;
2720;SDS011;1368;49.484;11.112;2022-11-15T06:20:50;13.13;;;9.00;;
2720;SDS011;1368;49.484;11.112;2022-11-15T06:23:15;16.20;;;10.40;;
2720;SDS011;1368;49.484;11.112;2022-11-15T06:25:41;12.30;;;8.80;;
2720;SDS011;1368;49.484;11.112;2022-11-15T06:28:06;11.30;;;8.40;;
2720;SDS011;1368;49.484;11.112;2022-11-15T06:30:32;12.50;;;8.60;;
2720;SDS011;1368;49.484;11.112;2022-11-15T06:32:58;14.13;;;8.57;;
2720;SDS011;1368;49.484;11.112;2022-11-15T06:35:28;13.53;;;9.80;;
2720;SDS011;1368;49.484;11.112;2022-11-15T06:37:54;11.60;;;8.50;;
2720;SDS011;1368;49.484;11.112;2022-11-15T06:40:21;12.23;;;10.20;;
2720;SDS011;1368;49.484;11.112;2022-11-15T06:42:46;12.23;;;8.30;;
2720;SDS011;1368;49.484;11.112;2022-11-15T06:45:12;12.30;;;8.50;;
2720;SDS011;1368;49.484;11.112;2022-11-15T06:47:44;13.27;;;8.37;;
2720;SDS011;1368;49.484;11.112;2022-11-15T06:50:11;15.23;;;9.83;;
2720;SDS011;1368;49.484;11.112;2022-11-15T06:52:37;13.80;;;8.90;;
2720;SDS011;1368;49.484;11.112;2022-11-15T06:55:02;9.63;;;8.13;;
2720;SDS011;1368;49.484;11.112;2022-11-15T06:57:28;9.93;;;7.83;;
2720;SDS011;1368;49.484;11.112;2022-11-15T06:59:53;10.83;;;8.17;;
2720;SDS011;1368;49.484;11.112;2022-11-15T07:02:19;11.93;;;8.20;;
2720;SDS011;1368;49.484;11.112;2022-11-15T07:04:45;9.87;;;7.53;;
2720;SDS011;1368;49.484;11.112;2022-11-15T07:07:10;11.17;;;7.97;;
2720;SDS011;1368;49.484;11.112;2022-11-15T07:09:36;11.47;;;8.17;;
2720;SDS011;1368;49.484;11.112;2022-11-15T07:12:01;10.70;;;8.00;;
2720;SDS011;1368;49.484;11.112;2022-11-15T07:14:27;11.10;;;8.40;;
2720;SDS011;1368;49.484;11.112;2022-11-15T07:16:52;13.97;;;8.00;;
2720;SDS011;1368;49.484;11.112;2022-11-15T07:19:18;11.30;;;8.13;;
2720;SDS011;1368;49.484;11.112;2022-11-15T07:21:43;10.47;;;8.67;;
2720;SDS011;1368;49.484;11.112;2022-11-15T07:24:09;9.00;;;6.90;;
2720;SDS011;1368;49.484;11.112;2022-11-15T07:26:35;12.87;;;8.63;;
2720;SDS011;1368;49.484;11.112;2022-11-15T07:29:00;12.80;;;8.30;;
2720;SDS011;1368;49.484;11.112;2022-11-15T07:31:26;10.77;;;7.97;;
2720;SDS011;1368;49.484;11.112;2022-11-15T07:33:51;9.83;;;8.17;;
2720;SDS011;1368;49.484;11.112;2022-11-15T07:36:17;13.97;;;7.67;;
2720;SDS011;1368;49.484;11.112;2022-11-15T07:38:42;10.00;;;6.97;;
2720;SDS011;1368;49.484;11.112;2022-11-15T07:41:08;16.00;;;7.40;;
2720;SDS011;1368;49.484;11.112;2022-11-15T07:43:34;13.00;;;9.27;;
2720;SDS011;1368;49.484;11.112;2022-11-15T07:46:09;11.10;;;7.87;;
2720;SDS011;1368;49.484;11.112;2022-11-15T07:48:35;10.13;;;7.13;;
2720;SDS011;1368;49.484;11.112;2022-11-15T07:51:02;11.23;;;7.47;;
2720;SDS011;1368;49.484;11.112;2022-11-15T07:53:27;12.00;;;7.43;;
2720;SDS011;1368;49.484;11.112;2022-11-15T07:55:53;10.27;;;7.30;;
2720;SDS011;1368;49.484;11.112;2022-11-15T07:58:19;7.93;;;6.77;;
2720;SDS011;1368;49.484;11.112;2022-11-15T08:00:44;10.17;;;6.60;;
2720;SDS011;1368;49.484;11.112;2022-11-15T08:03:11;8.63;;;7.37;;
2720;SDS011;1368;49.484;11.112;2022-11-15T08:05:39;10.97;;;7.13;;
2720;SDS011;1368;49.484;11.112;2022-11-15T08:08:06;10.10;;;7.40;;
2720;SDS011;1368;49.484;11.112;2022-11-15T08:10:33;10.17;;;7.33;;
2720;SDS011;1368;49.484;11.112;2022-11-15T08:13:09;11.60;;;8.20;;
2720;SDS011;1368;49.484;11.112;2022-11-15T08:15:36;9.73;;;7.33;;
2720;SDS011;1368;49.484;11.112;2022-11-15T08:18:03;9.90;;;7.70;;
2720;SDS011;1368;49.484;11.112;2022-11-15T08:20:30;9.80;;;7.80;;
2720;SDS011;1368;49.484;11.112;2022-11-15T08:22:57;10.90;;;7.57;;
2720;SDS011;1368;49.484;11.112;2022-11-15T08:25:24;8.73;;;6.60;;
2720;SDS011;1368;49.484;11.112;2022-11-15T08:27:53;9.43;;;7.63;;
2720;SDS011;1368;49.484;11.112;2022-11-15T08:30:20;11.97;;;7.10;;
2720;SDS011;1368;49.484;11.112;2022-11-15T08:32:47;11.27;;;8.03;;
2720;SDS011;1368;49.484;11.112;2022-11-15T08:35:13;11.63;;;7.37;;
2720;SDS011;1368;49.484;11.112;2022-11-15T08:37:39;10.67;;;7.43;;
2720;SDS011;1368;49.484;11.112;2022-11-15T08:40:05;10.27;;;7.73;;
2720;SDS011;1368;49.484;11.112;2022-11-15T08:42:31;10.03;;;7.73;;
2720;SDS011;1368;49.484;11.112;2022-11-15T08:44:56;10.40;;;7.53;;
2720;SDS011;1368;49.484;11.112;2022-11-15T08:47:22;12.60;;;8.00;;
2720;SDS011;1368;49.484;11.112;2022-11-15T08:49:48;10.40;;;6.97;;
2720;SDS011;1368;49.484;11.112;2022-11-15T08:52:14;10.97;;;8.00;;
2720;SDS011;1368;49.484;11.112;2022-11-15T08:54:39;13.63;;;8.30;;
2720;SDS011;1368;49.484;11.112;2022-11-15T08:57:05;8.87;;;6.77;;
2720;SDS011;1368;49.484;11.112;2022-11-15T08:59:31;11.87;;;7.30;;
2720;SDS011;1368;49.484;11.112;2022-11-15T09:01:57;8.43;;;6.43;;
2720;SDS011;1368;49.484;11.112;2022-11-15T09:04:22;10.37;;;6.70;;
2720;SDS011;1368;49.484;11.112;2022-11-15T09:06:48;8.80;;;6.50;;
2720;SDS011;1368;49.484;11.112;2022-11-15T09:09:14;11.33;;;6.87;;
2720;SDS011;1368;49.484;11.112;2022-11-15T09:11:39;10.13;;;7.60;;
2720;SDS011;1368;49.484;11.112;2022-11-15T09:14:05;11.10;;;6.70;;
2720;SDS011;1368;49.484;11.112;2022-11-15T09:16:30;11.83;;;7.20;;
2720;SDS011;1368;49.484;11.112;2022-11-15T09:18:56;12.80;;;7.77;;
2720;SDS011;1368;49.484;11.112;2022-11-15T09:21:22;7.13;;;5.70;;
2720;SDS011;1368;49.484;11.112;2022-11-15T09:23:49;8.23;;;6.70;;
2720;SDS011;1368;49.484;11.112;2022-11-15T09:26:16;14.03;;;6.80;;
2720;SDS011;1368;49.484;11.112;2022-11-15T09:28:42;12.40;;;7.50;;
2720;SDS011;1368;49.484;11.112;2022-11-15T09:31:07;11.37;;;7.30;;
2720;SDS011;1368;49.484;11.112;2022-11-15T09:33:34;8.37;;;6.50;;
2720;SDS011;1368;49.484;11.112;2022-11-15T09:36:04;10.73;;;6.10;;
2720;SDS011;1368;49.484;11.112;2022-11-15T09:38:31;7.27;;;5.63;;
2720;SDS011;1368;49.484;11.112;2022-11-15T09:46:38;7.73;;;5.37;;
2720;SDS011;1368;49.484;11.112;2022-11-15T09:49:12;7.00;;;5.47;;
2720;SDS011;1368;49.484;11.112;2022-11-15T09:51:41;9.27;;;5.17;;
2720;SDS011;1368;49.484;11.112;2022-11-15T09:54:30;8.80;;;5.23;;
2720;SDS011;1368;49.484;11.112;2022-11-15T10:00:04;8.20;;;5.43;;
2720;SDS011;1368;49.484;11.112;2022-11-15T10:02:50;6.87;;;5.27;;
2720;SDS011;1368;49.484;11.112;2022-11-15T10:05:46;7.20;;;4.47;;
2720;SDS011;1368;49.484;11.112;2022-11-15T10:08:35;9.03;;;5.60;;
2720;SDS011;1368;49.484;11.112;2022-11-15T10:11:07;7.33;;;5.23;;
2720;SDS011;1368;49.484;11.112;2022-11-15T10:13:36;4.40;;;4.00;;
2720;SDS011;1368;49.484;11.112;2022-11-15T10:16:13;8.30;;;4.80;;
2720;SDS011;1368;49.484;11.112;2022-11-15T10:24:37;8.10;;;4.80;;
2720;SDS011;1368;49.484;11.112;2022-11-15T10:27:14;8.00;;;4.37;;
2720;SDS011;1368;49.484;11.112;2022-11-15T10:29:44;5.40;;;4.13;;
2720;SDS011;1368;49.484;11.112;2022-11-15T10:32:12;6.23;;;4.00;;
2720;SDS011;1368;49.484;11.112;2022-11-15T10:34:40;5.93;;;4.07;;
2720;SDS011;1368;49.484;11.112;2022-11-15T10:37:06;6.13;;;4.57;;
2720;SDS011;1368;49.484;11.112;2022-11-15T10:39:31;7.03;;;3.73;;
2720;SDS011;1368;49.484;11.112;2022-11-15T10:42:16;6.00;;;3.20;;
2720;SDS011;1368;49.484;11.112;2022-11-15T10:44:50;4.67;;;3.20;;
2720;SDS011;1368;49.484;11.112;2022-11-15T10:47:26;5.93;;;3.60;;
2720;SDS011;1368;49.484;11.112;2022-11-15T10:49:59;6.37;;;3.10;;
2720;SDS011;1368;49.484;11.112;2022-11-15T10:52:28;6.27;;;3.00;;
2720;SDS011;1368;49.484;11.112;2022-11-15T10:57:32;5.50;;;2.80;;
2720;SDS011;1368;49.484;11.112;2022-11-15T11:10:30;3.70;;;2.83;;
2720;SDS011;1368;49.484;11.112;2022-11-15T11:13:08;3.83;;;3.00;;
2720;SDS011;1368;49.484;11.112;2022-11-15T11:15:38;5.00;;;2.90;;
2720;SDS011;1368;49.484;11.112;2022-11-15T11:18:15;5.47;;;2.73;;
2720;SDS011;1368;49.484;11.112;2022-11-15T11:20:58;3.77;;;2.70;;
2720;SDS011;1368;49.484;11.112;2022-11-15T11:32:01;8.17;;;3.13;;
2720;SDS011;1368;49.484;11.112;2022-11-15T11:34:50;4.87;;;3.10;;
2720;SDS011;1368;49.484;11.112;2022-11-15T11:40:14;6.80;;;3.57;;
2720;SDS011;1368;49.484;11.112;2022-11-15T11:51:17;5.93;;;3.13;;
2720;SDS011;1368;49.484;11.112;2022-11-15T11:53:54;7.70;;;3.07;;
2720;SDS011;1368;49.484;11.112;2022-11-15T11:56:29;7.07;;;2.97;;
2720;SDS011;1368;49.484;11.112;2022-11-15T11:59:07;6.87;;;3.10;;
2720;SDS011;1368;49.484;11.112;2022-11-15T12:01:46;4.17;;;3.17;;
2720;SDS011;1368;49.484;11.112;2022-11-15T12:04:19;6.67;;;3.10;;
2720;SDS011;1368;49.484;11.112;2022-11-15T12:07:00;6.57;;;3.47;;
2720;SDS011;1368;49.484;11.112;2022-11-15T12:09:31;6.03;;;3.30;;
2720;SDS011;1368;49.484;11.112;2022-11-15T12:12:11;4.70;;;2.67;;
2720;SDS011;1368;49.484;11.112;2022-11-15T12:17:35;7.53;;;2.80;;
2720;SDS011;1368;49.484;11.112;2022-11-15T12:20:12;4.80;;;3.17;;
2720;SDS011;1368;49.484;11.112;2022-11-15T12:23:13;6.10;;;3.00;;
2720;SDS011;1368;49.484;11.112;2022-11-15T12:25:45;4.67;;;3.10;;
2720;SDS011;1368;49.484;11.112;2022-11-15T12:28:17;5.33;;;3.20;;
2720;SDS011;1368;49.484;11.112;2022-11-15T12:31:26;12.17;;;3.60;;
2720;SDS011;1368;49.484;11.112;2022-11-15T12:33:59;7.87;;;2.80;;
2720;SDS011;1368;49.484;11.112;2022-11-15T12:39:05;9.03;;;3.43;;
2720;SDS011;1368;49.484;11.112;2022-11-15T12:41:44;8.47;;;3.43;;
2720;SDS011;1368;49.484;11.112;2022-11-15T12:47:15;6.37;;;3.60;;
2720;SDS011;1368;49.484;11.112;2022-11-15T12:49:48;7.27;;;3.20;;
2720;SDS011;1368;49.484;11.112;2022-11-15T12:52:14;5.37;;;2.80;;
2720;SDS011;1368;49.484;11.112;2022-11-15T13:02:20;7.23;;;3.93;;
2720;SDS011;1368;49.484;11.112;2022-11-15T13:04:47;5.23;;;3.17;;
2720;SDS011;1368;49.484;11.112;2022-11-15T13:25:18;6.87;;;3.27;;
2720;SDS011;1368;49.484;11.112;2022-11-15T13:27:47;6.60;;;3.10;;
2720;SDS011;1368;49.484;11.112;2022-11-15T13:30:21;5.30;;;3.60;;
2720;SDS011;1368;49.484;11.112;2022-11-15T13:32:48;7.00;;;3.73;;
2720;SDS011;1368;49.484;11.112;2022-11-15T13:35:23;5.57;;;2.67;;
2720;SDS011;1368;49.484;11.112;2022-11-15T13:37:54;9.13;;;3.13;;
2720;SDS011;1368;49.484;11.112;2022-11-15T13:42:49;6.30;;;3.90;;
2720;SDS011;1368;49.484;11.112;2022-11-15T13:45:16;7.80;;;4.40;;
2720;SDS011;1368;49.484;11.112;2022-11-15T13:47:44;7.57;;;4.67;;
2720;SDS011;1368;49.484;11.112;2022-11-15T13:50:10;7.43;;;3.90;;
2720;SDS011;1368;49.484;11.112;2022-11-15T13:52:37;7.23;;;3.60;;
2720;SDS011;1368;49.484;11.112;2022-11-15T13:57:46;7.13;;;3.87;;
2720;SDS011;1368;49.484;11.112;2022-11-15T14:00:47;8.23;;;3.97;;
2720;SDS011;1368;49.484;11.112;2022-11-15T14:06:10;4.57;;;3.10;;
2720;SDS011;1368;49.484;11.112;2022-11-15T14:08:40;6.53;;;3.70;;
2720;SDS011;1368;49.484;11.112;2022-11-15T14:11:24;6.10;;;3.47;;
2720;SDS011;1368;49.484;11.112;2022-11-15T14:14:01;6.27;;;3.93;;
2720;SDS011;1368;49.484;11.112;2022-11-15T14:19:04;6.00;;;4.00;;
2720;SDS011;1368;49.484;11.112;2022-11-15T14:21:31;5.43;;;4.00;;
2720;SDS011;1368;49.484;11.112;2022-11-15T14:26:45;8.90;;;4.30;;
2720;SDS011;1368;49.484;11.112;2022-11-15T14:29:23;6.03;;;3.93;;
2720;SDS011;1368;49.484;11.112;2022-11-15T14:31:49;9.50;;;4.50;;
2720;SDS011;1368;49.484;11.112;2022-11-15T14:34:14;9.53;;;5.30;;
2720;SDS011;1368;49.484;11.112;2022-11-15T14:36:40;7.67;;;4.33;;
2720;SDS011;1368;49.484;11.112;2022-11-15T14:39:05;8.30;;;4.57;;
2720;SDS011;1368;49.484;11.112;2022-11-15T14:41:34;10.20;;;5.47;;
2720;SDS011;1368;49.484;11.112;2022-11-15T14:44:03;8.43;;;4.73;;
2720;SDS011;1368;49.484;11.112;2022-11-15T14:46:29;7.07;;;4.00;;
2720;SDS011;1368;49.484;11.112;2022-11-15T14:48:55;6.67;;;4.70;;
2720;SDS011;1368;49.484;11.112;2022-11-15T14:51:20;7.80;;;4.37;;
2720;SDS011;1368;49.484;11.112;2022-11-15T14:53:46;7.43;;;4.47;;
2720;SDS011;1368;49.484;11.112;2022-11-15T14:56:12;6.63;;;4.57;;
2720;SDS011;1368;49.484;11.112;2022-11-15T14:58:38;6.93;;;4.87;;
2720;SDS011;1368;49.484;11.112;2022-11-15T15:03:44;17.30;;;5.10;;
2720;SDS011;1368;49.484;11.112;2022-11-15T15:06:09;8.90;;;5.20;;
2720;SDS011;1368;49.484;11.112;2022-11-15T15:08:37;8.37;;;4.60;;
2720;SDS011;1368;49.484;11.112;2022-11-15T15:11:04;7.93;;;4.63;;
2720;SDS011;1368;49.484;11.112;2022-11-15T15:13:36;8.53;;;5.57;;
2720;SDS011;1368;49.484;11.112;2022-11-15T15:16:01;10.70;;;6.43;;
2720;SDS011;1368;49.484;11.112;2022-11-15T15:18:27;20.57;;;6.00;;
2720;SDS011;1368;49.484;11.112;2022-11-15T15:20:56;17.70;;;6.13;;
2720;SDS011;1368;49.484;11.112;2022-11-15T15:23:24;7.27;;;5.23;;
2720;SDS011;1368;49.484;11.112;2022-11-15T15:25:54;7.30;;;5.50;;
2720;SDS011;1368;49.484;11.112;2022-11-15T15:28:19;9.37;;;5.13;;
2720;SDS011;1368;49.484;11.112;2022-11-15T15:30:45;9.13;;;4.90;;
2720;SDS011;1368;49.484;11.112;2022-11-15T15:33:10;9.03;;;6.30;;
2720;SDS011;1368;49.484;11.112;2022-11-15T15:35:36;11.47;;;5.83;;
2720;SDS011;1368;49.484;11.112;2022-11-15T15:38:01;8.67;;;5.53;;
2720;SDS011;1368;49.484;11.112;2022-11-15T15:40:28;8.13;;;6.53;;
2720;SDS011;1368;49.484;11.112;2022-11-15T15:42:56;8.40;;;5.63;;
2720;SDS011;1368;49.484;11.112;2022-11-15T15:45:22;9.40;;;6.30;;
2720;SDS011;1368;49.484;11.112;2022-11-15T15:47:47;9.57;;;6.30;;
2720;SDS011;1368;49.484;11.112;2022-11-15T15:50:17;14.27;;;6.60;;
2720;SDS011;1368;49.484;11.112;2022-11-15T15:52:50;7.33;;;5.80;;
2720;SDS011;1368;49.484;11.112;2022-11-15T15:55:17;13.80;;;6.70;;
2720;SDS011;1368;49.484;11.112;2022-11-15T15:57:43;11.53;;;7.40;;
2720;SDS011;1368;49.484;11.112;2022-11-15T16:00:09;19.30;;;14.07;;
2720;SDS011;1368;49.484;11.112;2022-11-15T16:02:35;42.63;;;28.90;;
2720;SDS011;1368;49.484;11.112;2022-11-15T16:05:01;46.33;;;33.40;;
2720;SDS011;1368;49.484;11.112;2022-11-15T16:07:27;41.10;;;31.70;;
2720;SDS011;1368;49.484;11.112;2022-11-15T16:09:54;37.07;;;25.80;;
2720;SDS011;1368;49.484;11.112;2022-11-15T16:12:26;21.63;;;14.67;;
2720;SDS011;1368;49.484;11.112;2022-11-15T16:14:56;69.70;;;54.50;;
2720;SDS011;1368;49.484;11.112;2022-11-15T16:17:23;166.70;;;122.70;;
2720;SDS011;1368;49.484;11.112;2022-11-15T16:19:50;88.83;;;60.50;;
2720;SDS011;1368;49.484;11.112;2022-11-15T16:22:16;68.30;;;42.57;;
2720;SDS011;1368;49.484;11.112;2022-11-15T16:24:42;40.70;;;31.63;;
2720;SDS011;1368;49.484;11.112;2022-11-15T16:27:14;33.80;;;24.20;;
2720;SDS011;1368;49.484;11.112;2022-11-15T16:29:40;26.70;;;23.03;;
2720;SDS011;1368;49.484;11.112;2022-11-15T16:32:06;18.93;;;14.97;;
2720;SDS011;1368;49.484;11.112;2022-11-15T16:34:32;18.73;;;11.23;;
2720;SDS011;1368;49.484;11.112;2022-11-15T16:36:57;18.27;;;13.93;;
2720;SDS011;1368;49.484;11.112;2022-11-15T16:39:23;16.70;;;10.37;;
2720;SDS011;1368;49.484;11.112;2022-11-15T16:41:48;20.83;;;12.87;;
2720;SDS011;1368;49.484;11.112;2022-11-15T16:44:14;16.90;;;10.13;;
2720;SDS011;1368;49.484;11.112;2022-11-15T16:46:40;13.20;;;9.30;;
2720;SDS011;1368;49.484;11.112;2022-11-15T16:49:13;14.07;;;8.30;;
2720;SDS011;1368;49.484;11.112;2022-11-15T16:51:39;16.93;;;11.83;;
2720;SDS011;1368;49.484;11.112;2022-11-15T16:54:06;24.70;;;14.80;;
2720;SDS011;1368;49.484;11.112;2022-11-15T16:56:31;24.27;;;15.60;;
2720;SDS011;1368;49.484;11.112;2022-11-15T16:58:58;14.10;;;10.67;;
2720;SDS011;1368;49.484;11.112;2022-11-15T17:01:29;11.03;;;8.70;;
2720;SDS011;1368;49.484;11.112;2022-11-15T17:03:56;17.10;;;10.27;;